createdAt,value
2023-02-24T00:00:32.615Z,100132.23
2023-02-24T00:01:38.948Z,100123.32
2023-02-24T00:02:41.569Z,100126.00
2023-02-24T00:03:44.418Z,100118.95
2023-02-24T00:04:49.916Z,100118.95
2023-02-24T00:05:53.983Z,100114.52
2023-02-24T00:06:56.809Z,100116.31
2023-02-24T00:08:00.061Z,100116.31
2023-02-24T00:09:08.953Z,100115.46
2023-02-24T00:10:14.489Z,100116.41
2023-02-24T00:11:18.742Z,100105.70
2023-02-24T00:12:21.661Z,100110.21
2023-02-24T00:13:24.224Z,100108.48
2023-02-24T00:14:29.427Z,100106.69
2023-02-24T00:15:32.321Z,100104.96
2023-02-24T00:16:37.576Z,100105.81
2023-02-24T00:17:41.137Z,100101.44
2023-02-24T00:18:44.714Z,100106.69
2023-02-24T00:19:48.356Z,100101.44
2023-02-24T00:20:52.979Z,100096.92
2023-02-24T00:21:55.582Z,100101.44
2023-02-24T00:22:59.788Z,100088.12
2023-02-24T00:24:03.156Z,100088.12
2023-02-24T00:25:06.362Z,100089.00
2023-02-24T00:26:10.819Z,100089.00
2023-02-24T00:27:14.316Z,100088.12
2023-02-24T00:28:16.904Z,100087.16
2023-02-24T00:29:20.846Z,100083.64
2023-02-24T00:30:24.329Z,100080.09
2023-02-24T00:33:06.061Z,100081.92
2023-02-24T00:34:08.753Z,100083.64
2023-02-24T00:35:11.578Z,100073.88
2023-02-24T00:36:17.351Z,100074.73
2023-02-24T00:37:21.940Z,100057.81
2023-02-24T00:38:24.771Z,100061.45
2023-02-24T00:39:32.751Z,100067.68
2023-02-24T00:40:37.016Z,100064.13
2023-02-24T00:41:43.431Z,100052.88
2023-02-24T00:42:48.100Z,100052.88
2023-02-24T00:43:51.163Z,100059.64
2023-02-24T00:44:54.200Z,100051.72
2023-02-24T00:45:57.330Z,100047.20
2023-02-24T00:47:04.770Z,100042.70
2023-02-24T00:48:10.268Z,100044.42
2023-02-24T00:49:19.302Z,100038.22
2023-02-24T00:50:24.465Z,100033.72
2023-02-24T00:51:27.535Z,100033.72
2023-02-24T00:52:31.292Z,100033.61
2023-02-24T00:53:35.545Z,100028.25
2023-02-24T00:54:38.105Z,100028.25
2023-02-24T00:55:40.856Z,100022.90
2023-02-24T00:56:44.966Z,100021.94
2023-02-24T00:57:49.551Z,100020.11
2023-02-24T00:58:55.887Z,100020.99
2023-02-24T00:59:59.132Z,100020.99
2023-02-24T01:01:04.370Z,100018.31
2023-02-24T01:02:08.103Z,100016.48
2023-02-24T01:03:11.862Z,100016.37
2023-02-24T01:04:16.179Z,100011.02
2023-02-24T01:05:20.679Z,100007.60
2023-02-24T01:06:25.698Z,100006.61
2023-02-24T01:07:28.938Z,100011.02
2023-02-24T01:08:33.698Z,100001.27
2023-02-24T01:09:37.862Z,99997.62
2023-02-24T01:10:42.433Z,99992.27
2023-02-24T01:12:04.450Z,99988.75
2023-02-24T01:13:06.912Z,99984.23
2023-02-24T01:14:15.028Z,99983.39
2023-02-24T01:15:18.831Z,99983.39
2023-02-24T01:16:21.502Z,99978.88
2023-02-24T01:17:24.860Z,99981.56
2023-02-24T01:18:29.321Z,99975.36
2023-02-24T01:19:33.050Z,99972.68
2023-02-24T01:20:37.605Z,99970.00
2023-02-24T01:21:42.389Z,99970.00
2023-02-24T01:22:46.814Z,99970.00
2023-02-24T01:23:51.886Z,99972.68
2023-02-24T01:24:54.364Z,99968.17
2023-02-24T01:25:59.054Z,99962.70
2023-02-24T01:27:03.638Z,99970.73
2023-02-24T01:28:08.807Z,99960.14
2023-02-24T01:29:11.341Z,99955.73
2023-02-24T01:31:29.084Z,99947.87
2023-02-24T01:32:32.175Z,99948.47
2023-02-24T01:33:38.979Z,99943.11
2023-02-24T01:34:41.985Z,99942.23
2023-02-24T01:35:45.516Z,99944.91
2023-02-24T01:36:48.173Z,99941.28
2023-02-24T01:37:51.087Z,99939.52
2023-02-24T01:38:53.827Z,99944.88
2023-02-24T01:39:56.529Z,99941.28
2023-02-24T01:41:02.786Z,99943.04
2023-02-24T01:42:06.240Z,99932.33
2023-02-24T01:43:09.848Z,99935.84
2023-02-24T01:44:20.809Z,99935.92
2023-02-24T01:45:25.353Z,99935.84
2023-02-24T01:46:29.390Z,99928.80
2023-02-24T01:47:31.977Z,99929.65
2023-02-24T01:48:34.865Z,99932.33
2023-02-24T01:49:45.127Z,99926.13
2023-02-24T01:50:47.691Z,99923.45
2023-02-24T01:51:56.642Z,99921.61
2023-02-24T01:53:00.721Z,99919.02
2023-02-24T01:54:06.428Z,99919.86
2023-02-24T01:55:19.489Z,99920.77
2023-02-24T01:56:22.119Z,99910.98
2023-02-24T01:57:26.251Z,99918.13
2023-02-24T01:58:29.636Z,99915.45
2023-02-24T01:59:32.871Z,99908.41
2023-02-24T02:00:38.850Z,99911.94
2023-02-24T02:01:42.306Z,99908.41
2023-02-24T02:02:47.505Z,99910.09
2023-02-24T02:03:51.995Z,99895.02
2023-02-24T02:04:59.031Z,99902.95
2023-02-24T02:06:03.825Z,99906.58
2023-02-24T02:07:08.404Z,99902.06
2023-02-24T02:08:10.857Z,99903.79
2023-02-24T02:09:16.444Z,99895.75
2023-02-24T02:10:20.660Z,99899.39
2023-02-24T02:11:23.594Z,99894.91
2023-02-24T02:12:27.322Z,99892.23
2023-02-24T02:13:29.786Z,99889.55
2023-02-24T02:14:32.703Z,99891.31
2023-02-24T02:15:37.136Z,99893.08
2023-02-24T02:17:02.053Z,99887.72
2023-02-24T02:19:42.914Z,99887.02
2023-02-24T02:21:18.004Z,99886.87
2023-02-24T02:22:45.897Z,99877.97
2023-02-24T02:24:14.089Z,99882.59
2023-02-24T02:25:35.641Z,99871.03
2023-02-24T02:27:02.290Z,99872.09
2023-02-24T02:28:21.418Z,99878.41
2023-02-24T02:30:02.159Z,99875.84
2023-02-24T02:31:30.333Z,99873.38
2023-02-24T02:32:58.513Z,99868.98
2023-02-24T02:34:17.491Z,99864.69
2023-02-24T02:35:30.966Z,99869.31
2023-02-24T02:38:02.626Z,99861.61
2023-02-24T02:39:44.169Z,99863.30
2023-02-24T02:41:03.209Z,99864.25
2023-02-24T02:42:27.098Z,99860.73
2023-02-24T02:43:38.730Z,99857.20
2023-02-24T02:45:12.736Z,99859.88
2023-02-24T02:46:17.848Z,99851.93
2023-02-24T02:47:29.821Z,99848.41
2023-02-24T02:48:49.849Z,99849.25
2023-02-24T02:49:55.920Z,99851.09
2023-02-24T02:52:18.946Z,99842.31
2023-02-24T02:54:48.759Z,99832.45
2023-02-24T02:57:09.461Z,99835.89
2023-02-24T02:58:16.431Z,99824.09
2023-02-24T02:59:22.710Z,99830.22
2023-02-24T03:00:28.837Z,99828.38
2023-02-24T03:01:34.234Z,99827.32
2023-02-24T03:02:38.965Z,99814.78
2023-02-24T03:03:45.243Z,99813.82
2023-02-24T03:06:06.529Z,99817.36
2023-02-24T03:07:10.114Z,99816.16
2023-02-24T03:08:15.381Z,99809.01
2023-02-24T03:09:20.888Z,99809.86
2023-02-24T03:10:27.713Z,99805.38
2023-02-24T03:11:31.970Z,99807.17
2023-02-24T03:12:36.429Z,99800.02
2023-02-24T03:13:40.949Z,99801.70
2023-02-24T03:14:50.126Z,99807.94
2023-02-24T03:15:53.102Z,99802.47
2023-02-24T03:16:56.415Z,99804.27
2023-02-24T03:18:03.785Z,99793.56
2023-02-24T03:19:08.454Z,99794.44
2023-02-24T03:20:29.191Z,99789.09
2023-02-24T03:21:34.573Z,99780.94
2023-02-24T03:22:41.834Z,99782.77
2023-02-24T03:23:47.814Z,99782.77
2023-02-24T03:24:50.697Z,99777.50
2023-02-24T03:26:00.357Z,99774.73
2023-02-24T03:27:10.318Z,99769.39
2023-02-24T03:29:33.304Z,99772.18
2023-02-24T03:32:02.630Z,99764.14
2023-02-24T03:33:09.157Z,99766.59
2023-02-24T03:34:49.469Z,99768.39
2023-02-24T03:35:52.193Z,99767.44
2023-02-24T03:36:55.586Z,99765.61
2023-02-24T03:37:58.905Z,99754.89
2023-02-24T03:39:02.027Z,99757.57
2023-02-24T03:40:10.334Z,99750.41
2023-02-24T03:41:13.864Z,99754.89
2023-02-24T03:42:20.218Z,99750.41
2023-02-24T03:43:32.881Z,99746.86
2023-02-24T03:44:37.257Z,99742.27
2023-02-24T03:45:41.068Z,99747.63
2023-02-24T03:46:43.947Z,99742.27
2023-02-24T03:47:47.612Z,99743.11
2023-02-24T03:48:57.221Z,99737.75
2023-02-24T03:49:59.921Z,99736.83
2023-02-24T03:51:03.720Z,99735.88
2023-02-24T03:53:57.101Z,99725.34
2023-02-24T03:55:20.763Z,99731.36
2023-02-24T03:56:30.420Z,99726.96
2023-02-24T03:57:54.997Z,99721.61
2023-02-24T04:00:56.466Z,99717.42
2023-02-24T04:02:05.509Z,99722.59
2023-02-24T04:03:25.324Z,99715.48
2023-02-24T04:04:36.028Z,99708.41
2023-02-24T04:05:50.151Z,99708.41
2023-02-24T04:07:02.343Z,99700.50
2023-02-24T04:08:08.058Z,99697.81
2023-02-24T04:10:53.903Z,99688.17
2023-02-24T04:13:42.967Z,99687.33
2023-02-24T04:16:35.883Z,99678.45
2023-02-24T04:17:44.589Z,99686.27
2023-02-24T04:18:49.629Z,99683.59
2023-02-24T04:19:55.255Z,99684.55
2023-02-24T04:20:59.458Z,99682.70
2023-02-24T04:22:03.373Z,99676.39
2023-02-24T04:24:21.778Z,99677.25
2023-02-24T04:25:25.134Z,99677.12
2023-02-24T04:26:28.504Z,99674.39
2023-02-24T04:27:31.997Z,99671.72
2023-02-24T04:28:36.684Z,99667.20
2023-02-24T04:29:44.270Z,99672.44
2023-02-24T04:30:49.209Z,99671.48
2023-02-24T04:33:11.113Z,99658.04
2023-02-24T04:34:16.069Z,99667.73
2023-02-24T04:35:21.669Z,99667.73
2023-02-24T04:36:26.469Z,99663.22
2023-02-24T04:37:31.627Z,99659.70
2023-02-24T04:38:35.532Z,99661.38
2023-02-24T04:39:38.126Z,99663.98
2023-02-24T04:40:43.352Z,99650.59
2023-02-24T04:41:49.073Z,99659.47
2023-02-24T04:42:52.481Z,99651.43
2023-02-24T04:43:55.515Z,99650.59
2023-02-24T04:44:57.990Z,99651.43
2023-02-24T04:46:02.362Z,99646.92
2023-02-24T04:47:05.450Z,99645.11
2023-02-24T04:48:15.018Z,99639.76
2023-02-24T04:49:19.959Z,99645.00
2023-02-24T04:50:24.401Z,99637.92
2023-02-24T04:51:29.019Z,99643.28
2023-02-24T04:52:31.651Z,99639.64
2023-02-24T04:53:33.996Z,99647.67
2023-02-24T04:54:37.573Z,99648.52
2023-02-24T04:55:42.432Z,99646.80
2023-02-24T04:56:49.794Z,99649.36
2023-02-24T04:57:52.474Z,99642.32
2023-02-24T04:58:55.430Z,99642.32
2023-02-24T04:59:58.324Z,99644.00
2023-02-24T05:01:00.948Z,99642.32
2023-02-24T05:02:04.511Z,99646.69
2023-02-24T05:03:08.540Z,99652.91
2023-02-24T05:04:12.343Z,99646.69
2023-02-24T05:05:20.653Z,99644.88
2023-02-24T05:06:23.633Z,99647.56
2023-02-24T05:07:28.040Z,99645.72
2023-02-24T05:08:30.794Z,99644.00
2023-02-24T05:09:34.306Z,99642.20
2023-02-24T05:10:41.458Z,99641.33
2023-02-24T05:11:48.026Z,99645.72
2023-02-24T05:12:50.492Z,99640.37
2023-02-24T05:13:53.640Z,99641.24
2023-02-24T05:14:57.970Z,99640.25
2023-02-24T05:16:07.417Z,99639.41
2023-02-24T05:17:12.159Z,99629.53
2023-02-24T05:18:17.154Z,99637.57
2023-02-24T05:19:39.231Z,99639.29
2023-02-24T05:21:02.879Z,99625.05
2023-02-24T05:22:06.591Z,99619.70
2023-02-24T05:23:10.683Z,99623.34
2023-02-24T05:24:15.069Z,99617.14
2023-02-24T05:25:19.813Z,99613.58
2023-02-24T05:26:24.627Z,99621.50
2023-02-24T05:27:27.733Z,99613.58
2023-02-24T05:28:31.148Z,99615.42
2023-02-24T05:29:35.440Z,99613.58
2023-02-24T05:30:38.540Z,99613.58
2023-02-24T05:31:41.315Z,99615.30
2023-02-24T05:32:44.894Z,99611.78
2023-02-24T05:33:48.775Z,99611.66
2023-02-24T05:34:51.213Z,99609.83
2023-02-24T05:35:54.054Z,99608.98
2023-02-24T05:36:58.292Z,99612.39
2023-02-24T05:38:00.906Z,99610.67
2023-02-24T05:39:07.032Z,99604.35
2023-02-24T05:40:12.840Z,99604.35
2023-02-24T05:41:17.200Z,99605.23
2023-02-24T05:42:20.003Z,99598.03
2023-02-24T05:43:24.857Z,99591.83
2023-02-24T05:44:27.486Z,99598.03
2023-02-24T05:45:30.946Z,99598.03
2023-02-24T05:46:35.946Z,99598.03
2023-02-24T05:47:39.593Z,99590.00
2023-02-24T05:48:43.424Z,99590.00
2023-02-24T05:49:48.503Z,99589.03
2023-02-24T05:50:54.793Z,99600.71
2023-02-24T05:52:00.188Z,99582.80
2023-02-24T05:53:02.878Z,99583.80
2023-02-24T05:54:08.406Z,99586.36
2023-02-24T05:55:12.885Z,99582.80
2023-02-24T05:56:17.680Z,99579.28
2023-02-24T05:57:27.909Z,99582.92
2023-02-24T05:58:32.638Z,99578.32
2023-02-24T05:59:35.268Z,99580.13
2023-02-24T06:00:39.479Z,99572.97
2023-02-24T06:01:45.176Z,99564.92
2023-02-24T06:02:51.700Z,99569.41
2023-02-24T06:03:55.193Z,99572.97
2023-02-24T06:04:59.593Z,99576.61
2023-02-24T06:06:04.289Z,99564.92
2023-02-24T06:07:19.335Z,99560.53
2023-02-24T06:08:23.831Z,99557.86
2023-02-24T06:09:26.820Z,99565.05
2023-02-24T06:10:33.798Z,99554.33
2023-02-24T06:11:41.625Z,99557.86
2023-02-24T06:12:44.909Z,99552.62
2023-02-24T06:13:47.485Z,99553.45
2023-02-24T06:14:49.858Z,99557.09
2023-02-24T06:15:54.766Z,99556.14
2023-02-24T06:16:59.366Z,99557.97
2023-02-24T06:18:01.823Z,99562.45
2023-02-24T06:19:07.247Z,99546.38
2023-02-24T06:20:13.652Z,99562.45
2023-02-24T06:21:16.405Z,99546.38
2023-02-24T06:22:22.599Z,99537.51
2023-02-24T06:23:26.214Z,99528.51
2023-02-24T06:24:30.433Z,99533.87
2023-02-24T06:25:33.478Z,99524.95
2023-02-24T06:26:38.058Z,99537.51
2023-02-24T06:27:43.058Z,99531.19
2023-02-24T06:28:47.464Z,99528.51
2023-02-24T06:29:51.991Z,99510.09
2023-02-24T06:30:55.543Z,99510.09
2023-02-24T06:31:58.310Z,99525.71
2023-02-24T06:33:01.532Z,99525.71
2023-02-24T06:34:03.904Z,99521.31
2023-02-24T06:35:08.110Z,99523.03
2023-02-24T06:36:14.645Z,99523.03
2023-02-24T06:37:17.753Z,99503.53
2023-02-24T06:38:20.330Z,99515.95
2023-02-24T06:39:22.687Z,99508.80
2023-02-24T06:40:28.343Z,99511.56
2023-02-24T06:41:32.474Z,99512.44
2023-02-24T06:42:34.856Z,99504.28
2023-02-24T06:43:38.496Z,99504.41
2023-02-24T06:44:41.744Z,99502.56
2023-02-24T06:45:45.260Z,99507.92
2023-02-24T06:46:47.943Z,99491.46
2023-02-24T06:47:51.687Z,99491.46
2023-02-24T06:48:54.378Z,99499.89
2023-02-24T06:49:57.158Z,99494.66
2023-02-24T06:52:19.492Z,99484.84
2023-02-24T06:53:23.371Z,99492.81
2023-02-24T06:54:31.047Z,99503.53
2023-02-24T06:55:35.033Z,99482.10
2023-02-24T06:56:39.492Z,99482.98
2023-02-24T06:57:43.361Z,99486.50
2023-02-24T07:00:21.734Z,99481.16
2023-02-24T07:01:26.301Z,99481.26
2023-02-24T07:02:30.721Z,99481.26
2023-02-24T07:03:39.152Z,99478.58
2023-02-24T07:04:44.331Z,99475.06
2023-02-24T07:05:53.973Z,99473.34
2023-02-24T07:07:00.396Z,99466.16
2023-02-24T07:08:03.111Z,99468.11
2023-02-24T07:09:07.936Z,99476.98
2023-02-24T07:10:12.683Z,99466.27
2023-02-24T07:11:17.573Z,99481.50
2023-02-24T07:12:20.378Z,99468.95
2023-02-24T07:13:23.999Z,99466.27
2023-02-24T07:14:30.067Z,99460.08
2023-02-24T07:15:36.477Z,99468.11
2023-02-24T07:16:45.487Z,99471.62
2023-02-24T07:17:50.190Z,99469.91
2023-02-24T07:20:11.446Z,99457.54
2023-02-24T07:21:15.757Z,99457.52
2023-02-24T07:22:20.485Z,99450.33
2023-02-24T07:23:23.758Z,99458.36
2023-02-24T07:25:46.716Z,99449.50
2023-02-24T07:26:57.907Z,99457.39
2023-02-24T07:28:01.305Z,99450.33
2023-02-24T07:29:05.839Z,99437.77
2023-02-24T07:30:12.570Z,99441.33
2023-02-24T07:31:18.104Z,99445.81
2023-02-24T07:32:25.095Z,99440.45
2023-02-24T07:33:27.751Z,99438.65
2023-02-24T07:34:30.061Z,99438.65
2023-02-24T07:35:33.090Z,99423.42
2023-02-24T07:36:37.458Z,99441.33
2023-02-24T07:37:42.141Z,99442.17
2023-02-24T07:38:45.441Z,99435.01
2023-02-24T07:39:48.843Z,99429.65
2023-02-24T07:40:51.430Z,99421.61
2023-02-24T07:41:54.785Z,99420.74
2023-02-24T07:42:57.468Z,99418.81
2023-02-24T07:44:02.799Z,99418.94
2023-02-24T07:45:08.279Z,99426.97
2023-02-24T07:47:26.894Z,99417.11
2023-02-24T07:48:29.382Z,99414.55
2023-02-24T07:49:32.427Z,99416.26
2023-02-24T07:50:35.162Z,99412.59
2023-02-24T07:51:37.886Z,99425.13
2023-02-24T07:52:40.972Z,99416.14
2023-02-24T07:53:43.564Z,99408.10
2023-02-24T07:54:46.673Z,99426.84
2023-02-24T07:55:51.835Z,99401.88
2023-02-24T07:56:58.210Z,99406.27
2023-02-24T07:58:02.857Z,99399.07
2023-02-24T07:59:09.077Z,99411.63
2023-02-24T08:00:22.576Z,99408.10
2023-02-24T08:01:27.678Z,99395.55
2023-02-24T08:02:31.348Z,99412.46
2023-02-24T08:03:37.975Z,99396.52
2023-02-24T08:04:42.443Z,99400.91
2023-02-24T08:05:49.659Z,99410.78
2023-02-24T08:06:57.349Z,99405.55
2023-02-24T08:08:00.053Z,99402.87
2023-02-24T08:09:18.812Z,99393.95
2023-02-24T08:10:25.783Z,99408.22
2023-02-24T08:11:36.337Z,99399.19
2023-02-24T08:12:42.234Z,99399.31
2023-02-24T08:13:44.648Z,99398.47
2023-02-24T08:14:51.516Z,99397.60
2023-02-24T08:15:56.294Z,99399.44
2023-02-24T08:16:59.272Z,99394.20
2023-02-24T08:18:02.165Z,99390.69
2023-02-24T08:19:12.466Z,99402.23
2023-02-24T08:20:15.270Z,99388.84
2023-02-24T08:21:21.204Z,99398.72
2023-02-24T08:22:23.933Z,99397.72
2023-02-24T08:23:26.484Z,99383.49
2023-02-24T08:24:31.416Z,99386.17
2023-02-24T08:25:36.605Z,99388.01
2023-02-24T08:26:41.221Z,99402.23
2023-02-24T08:27:46.888Z,99383.49
2023-02-24T08:28:51.170Z,99383.49
2023-02-24T08:31:12.629Z,99377.42
2023-02-24T08:32:19.705Z,99376.80
2023-02-24T08:33:22.867Z,99389.64
2023-02-24T08:34:27.145Z,99375.99
2023-02-24T08:35:31.524Z,99368.19
2023-02-24T08:36:34.121Z,99364.40
2023-02-24T08:37:39.838Z,99382.86
2023-02-24T08:38:47.576Z,99371.60
2023-02-24T08:39:54.251Z,99366.94
2023-02-24T08:40:59.985Z,99359.38
2023-02-24T08:42:06.792Z,99362.17
2023-02-24T08:43:18.716Z,99369.77
2023-02-24T08:44:22.430Z,99372.39
2023-02-24T08:45:28.277Z,99363.84
2023-02-24T08:46:33.811Z,99362.13
2023-02-24T08:47:37.452Z,99364.08
2023-02-24T08:48:42.004Z,99359.92
2023-02-24T08:49:46.958Z,99360.87
2023-02-24T08:50:52.213Z,99352.86
2023-02-24T08:51:54.599Z,99357.68
2023-02-24T08:52:58.241Z,99344.55
2023-02-24T08:54:10.403Z,99360.05
2023-02-24T08:55:12.890Z,99340.78
2023-02-24T08:56:17.710Z,99348.38
2023-02-24T08:57:20.367Z,99348.80
2023-02-24T08:58:25.250Z,99358.11
2023-02-24T09:00:48.451Z,99345.59
2023-02-24T09:02:04.265Z,99335.80
2023-02-24T09:02:59.535Z,99340.63
2023-02-24T09:04:08.445Z,99341.15
2023-02-24T09:05:14.259Z,99343.70
2023-02-24T09:06:20.616Z,99327.77
2023-02-24T09:07:28.670Z,99339.44
2023-02-24T09:09:50.266Z,99327.48
2023-02-24T09:10:56.525Z,99334.24
2023-02-24T09:11:59.680Z,99344.77
2023-02-24T09:13:04.049Z,99342.50
2023-02-24T09:14:15.273Z,99332.27
2023-02-24T09:15:16.129Z,99337.72
2023-02-24T09:16:25.049Z,99346.05
2023-02-24T09:17:44.791Z,99336.31
2023-02-24T09:18:49.808Z,99324.70
2023-02-24T09:21:17.891Z,99323.79
2023-02-24T09:22:31.325Z,99323.89
2023-02-24T09:23:35.695Z,99329.78
2023-02-24T09:24:38.589Z,99330.13
2023-02-24T09:25:41.181Z,99312.55
2023-02-24T09:26:44.373Z,99295.11
2023-02-24T09:27:50.691Z,99295.11
2023-02-24T09:28:56.216Z,99316.59
2023-02-24T09:30:00.816Z,99312.32
2023-02-24T09:31:05.128Z,99317.76
2023-02-24T09:32:09.636Z,99307.30
2023-02-24T09:33:18.994Z,99311.16
2023-02-24T09:34:23.787Z,99303.46
2023-02-24T09:35:31.193Z,99296.61
2023-02-24T09:36:36.731Z,99293.37
2023-02-24T09:37:41.742Z,99293.67
2023-02-24T09:38:59.400Z,99315.48
2023-02-24T09:40:15.935Z,99315.06
2023-02-24T09:42:54.675Z,99288.24
2023-02-24T09:45:38.477Z,99271.30
2023-02-24T09:46:49.873Z,99272.73
2023-02-24T09:47:55.709Z,99271.42
2023-02-24T09:51:00.877Z,99262.76
2023-02-24T09:57:20.762Z,99281.96
2023-02-24T09:58:44.245Z,99266.55
2023-02-24T10:01:40.536Z,99256.79
2023-02-24T10:03:06.826Z,99253.90
2023-02-24T10:04:23.698Z,99255.73
2023-02-24T10:06:58.260Z,99236.11
2023-02-24T10:08:07.780Z,99244.91
2023-02-24T10:10:38.601Z,99250.20
2023-02-24T10:12:04.727Z,99241.07
2023-02-24T10:13:33.534Z,99248.13
2023-02-24T10:16:06.969Z,99228.10
2023-02-24T10:19:17.106Z,99226.17
2023-02-24T10:20:41.200Z,99241.09
2023-02-24T10:22:10.407Z,99228.47
2023-02-24T10:23:17.247Z,99233.82
2023-02-24T10:27:00.003Z,99222.05
2023-02-24T10:28:01.800Z,99224.70
2023-02-24T10:31:13.359Z,99212.19
2023-02-24T10:32:27.798Z,99212.92
2023-02-24T10:33:36.003Z,99211.09
2023-02-24T10:34:45.166Z,99208.41
2023-02-24T10:35:53.535Z,99205.62
2023-02-24T10:36:56.984Z,99199.30
2023-02-24T10:38:06.993Z,99205.38
2023-02-24T10:39:25.952Z,99197.09
2023-02-24T10:42:17.169Z,99186.05
2023-02-24T10:43:24.332Z,99193.95
2023-02-24T10:45:46.266Z,99179.48
2023-02-24T10:47:11.796Z,99179.36
2023-02-24T10:48:32.280Z,99178.40
2023-02-24T10:49:28.410Z,99173.77
2023-02-24T10:51:52.550Z,99177.17
2023-02-24T10:53:09.181Z,99175.22
2023-02-24T10:54:39.234Z,99172.42
2023-02-24T10:55:45.749Z,99167.91
2023-02-24T10:56:57.913Z,99163.30
2023-02-24T10:58:37.239Z,99163.30
2023-02-24T11:00:54.581Z,99163.03
2023-02-24T11:03:45.387Z,99153.33
2023-02-24T11:05:02.577Z,99150.76
2023-02-24T11:06:09.884Z,99139.81
2023-02-24T11:07:16.548Z,99150.05
2023-02-24T11:08:38.103Z,99148.47
2023-02-24T11:09:46.163Z,99150.18
2023-02-24T11:10:56.724Z,99145.79
2023-02-24T11:12:21.598Z,99144.83
2023-02-24T11:13:47.497Z,99142.86
2023-02-24T11:15:18.168Z,99137.52
2023-02-24T11:16:39.917Z,99135.67
2023-02-24T11:17:57.344Z,99132.91
2023-02-24T11:19:00.090Z,99137.39
2023-02-24T11:21:24.248Z,99133.37
2023-02-24T11:22:33.781Z,99139.70
2023-02-24T11:23:54.762Z,99129.12
2023-02-24T11:26:22.221Z,99133.00
2023-02-24T11:27:27.577Z,99125.73
2023-02-24T11:28:38.463Z,99122.09
2023-02-24T11:30:00.264Z,99123.64
2023-02-24T11:31:36.704Z,99122.55
2023-02-24T11:32:57.214Z,99118.66
2023-02-24T11:34:11.696Z,99115.85
2023-02-24T11:35:24.659Z,99107.83
2023-02-24T11:36:37.449Z,99119.40
2023-02-24T11:37:43.676Z,99106.98
2023-02-24T11:39:17.805Z,99123.88
2023-02-24T11:41:41.512Z,99112.59
2023-02-24T11:43:03.269Z,99111.98
2023-02-24T11:44:23.114Z,99099.58
2023-02-24T11:45:32.979Z,99089.74
2023-02-24T11:46:39.709Z,99100.31
2023-02-24T11:47:46.868Z,99105.55
2023-02-24T11:48:54.488Z,99097.52
2023-02-24T11:50:09.092Z,99115.38
2023-02-24T11:51:25.079Z,99101.03
2023-02-24T11:52:31.115Z,99098.36
2023-02-24T11:55:06.249Z,99106.98
2023-02-24T11:56:12.543Z,99108.80
2023-02-24T11:58:39.769Z,99100.78
2023-02-24T11:59:46.520Z,99105.05
2023-02-24T12:01:05.110Z,99094.95
2023-02-24T12:02:30.420Z,99085.67
2023-02-24T12:03:37.114Z,99087.26
2023-02-24T12:04:47.667Z,99077.65
2023-02-24T12:05:53.053Z,99093.81
2023-02-24T12:07:06.910Z,99102.33
2023-02-24T12:08:14.640Z,99103.41
2023-02-24T12:09:19.528Z,99093.68
2023-02-24T12:10:33.781Z,99098.06
2023-02-24T12:11:46.111Z,99099.87
2023-02-24T12:13:11.220Z,99087.37
2023-02-24T12:14:37.946Z,99075.34
2023-02-24T12:15:58.872Z,99081.28
2023-02-24T12:17:11.465Z,99083.12
2023-02-24T12:18:36.002Z,99088.47
2023-02-24T12:21:42.376Z,99067.83
2023-02-24T12:22:52.146Z,99067.08
2023-02-24T12:23:55.108Z,99091.02
2023-02-24T12:25:00.245Z,99062.45
2023-02-24T12:26:16.040Z,99069.75
2023-02-24T12:27:25.655Z,99076.06
2023-02-24T12:28:48.326Z,99076.56
2023-02-24T12:30:05.745Z,99072.80
2023-02-24T12:31:20.603Z,99076.81
2023-02-24T12:32:36.255Z,99076.56
2023-02-24T12:34:05.293Z,99055.83
2023-02-24T12:35:28.116Z,99059.95
2023-02-24T12:36:42.205Z,99064.09
2023-02-24T12:38:01.543Z,99068.32
2023-02-24T12:39:28.439Z,99067.10
2023-02-24T12:42:18.445Z,99061.97
2023-02-24T12:43:27.654Z,99049.36
2023-02-24T12:44:53.179Z,99049.11
2023-02-24T12:46:22.431Z,99043.63
2023-02-24T12:47:57.313Z,99041.56
2023-02-24T12:49:11.580Z,99041.31
2023-02-24T12:50:38.644Z,99030.35
2023-02-24T12:52:11.971Z,99032.06
2023-02-24T12:53:23.381Z,99031.93
2023-02-24T12:54:36.207Z,99033.52
2023-02-24T12:58:36.998Z,99028.64
2023-02-24T12:59:41.152Z,99027.64
2023-02-24T13:01:03.632Z,99021.20
2023-02-24T13:02:16.913Z,99024.61
2023-02-24T13:05:10.135Z,99026.86
2023-02-24T13:06:22.367Z,99025.80
2023-02-24T13:07:37.608Z,99023.83
2023-02-24T13:10:30.047Z,99013.72
2023-02-24T13:13:09.012Z,99006.29
2023-02-24T13:14:28.255Z,99015.05
2023-02-24T13:15:31.995Z,99000.69
2023-02-24T13:16:35.238Z,99006.88
2023-02-24T13:17:42.337Z,98995.95
2023-02-24T13:18:45.497Z,99003.84
2023-02-24T13:19:49.008Z,99012.62
2023-02-24T13:21:07.097Z,99003.61
2023-02-24T13:22:17.334Z,99001.77
2023-02-24T13:23:21.194Z,98997.16
2023-02-24T13:24:24.116Z,99000.67
2023-02-24T13:25:37.416Z,98991.80
2023-02-24T13:26:39.923Z,98996.16
2023-02-24T13:27:43.616Z,98989.83
2023-02-24T13:28:46.232Z,98986.05
2023-02-24T13:31:08.817Z,98983.64
2023-02-24T13:32:32.617Z,98972.99
2023-02-24T13:33:40.277Z,98983.70
2023-02-24T13:34:43.787Z,98986.38
2023-02-24T13:35:48.199Z,98977.48
2023-02-24T13:36:53.894Z,98976.64
2023-02-24T13:38:00.135Z,98969.45
2023-02-24T13:39:26.293Z,98964.95
2023-02-24T13:40:28.982Z,98969.31
2023-02-24T13:41:36.056Z,98964.83
2023-02-24T13:42:39.220Z,98960.30
2023-02-24T13:43:46.322Z,98962.14
2023-02-24T13:44:54.481Z,98956.79
2023-02-24T13:47:25.167Z,98954.73
2023-02-24T13:48:46.991Z,98943.27
2023-02-24T13:50:20.522Z,98944.23
2023-02-24T13:51:39.505Z,98945.94
2023-02-24T13:52:54.836Z,98947.78
2023-02-24T13:54:18.555Z,98952.13
2023-02-24T13:55:41.495Z,98959.33
2023-02-24T13:57:03.908Z,98943.40
2023-02-24T13:58:19.103Z,98952.27
2023-02-24T14:01:13.361Z,98946.84
2023-02-24T14:03:41.152Z,98939.91
2023-02-24T14:06:06.151Z,98930.90
2023-02-24T14:07:10.498Z,98922.94
2023-02-24T14:09:35.667Z,98925.41
2023-02-24T14:10:42.739Z,98921.84
2023-02-24T14:11:45.623Z,98926.36
2023-02-24T14:12:47.952Z,98923.55
2023-02-24T14:13:51.839Z,98928.77
2023-02-24T14:14:54.391Z,98920.59
2023-02-24T14:15:57.848Z,98918.61
2023-02-24T14:17:01.194Z,98920.32
2023-02-24T14:18:05.543Z,98924.70
2023-02-24T14:20:27.464Z,98926.33
2023-02-24T14:21:32.294Z,98929.92
2023-02-24T14:24:02.367Z,98907.30
2023-02-24T14:25:08.054Z,98917.00
2023-02-24T14:26:13.356Z,98910.63
2023-02-24T14:27:27.672Z,98907.81
2023-02-24T14:28:31.849Z,98920.10
2023-02-24T14:29:43.606Z,98905.59
2023-02-24T14:30:41.222Z,98912.66
2023-02-24T14:31:53.821Z,98924.08
2023-02-24T14:32:56.702Z,98923.11
2023-02-24T14:34:01.358Z,98912.25
2023-02-24T14:35:05.134Z,98913.95
2023-02-24T14:36:21.086Z,98904.94
2023-02-24T14:37:28.686Z,98912.84
2023-02-24T14:38:34.903Z,98908.33
2023-02-24T14:39:37.562Z,98904.66
2023-02-24T14:40:44.054Z,98903.70
2023-02-24T14:41:48.367Z,98907.21
2023-02-24T14:42:52.523Z,98903.55
2023-02-24T14:43:56.368Z,98903.55
2023-02-24T14:44:59.695Z,98905.26
2023-02-24T14:46:04.663Z,98903.41
2023-02-24T14:47:10.570Z,98906.94
2023-02-24T14:48:28.004Z,98914.14
2023-02-24T14:49:35.310Z,98904.25
2023-02-24T14:50:38.491Z,98909.61